Time;durP1;ratioP1;P1;durP2;ratioP2;P2;SDS_P1;SDS_P2;PMS_P1;PMS_P2;Temp;Humidity;BMP_temperature;BMP_pressure;BME280_temperature;BME280_humidity;BME280_pressure;Samples;Min_cycle;Max_cycle;Signal;HPM_P1;HPM_P2
2023/09/30 00:00:28;;;;;;;17.57;11.03;;;;;;;14.83;100.00;97571.34;5075495;28;20267;-59
2023/09/30 00:02:56;;;;;;;18.03;11.80;;;;;;;14.83;100.00;97573.19;5070031;28;20285;-60
2023/09/30 00:05:26;;;;;;;20.47;12.37;;;;;;;14.86;100.00;97578.09;5067700;28;20340;-59
2023/09/30 00:07:53;;;;;;;17.97;11.27;;;;;;;14.82;100.00;97569.69;5072310;28;20222;-60
2023/09/30 00:10:21;;;;;;;18.87;11.00;;;;;;;14.84;100.00;97574.81;5073546;28;20286;-59
2023/09/30 00:12:48;;;;;;;18.13;12.00;;;;;;;14.74;100.00;97554.69;5075594;28;20693;-61
2023/09/30 00:15:16;;;;;;;18.67;11.30;;;;;;;14.89;100.00;97564.38;4973428;28;20330;-57
2023/09/30 00:17:45;;;;;;;17.67;10.87;;;;;;;14.93;100.00;97567.47;5076426;28;20269;-58
2023/09/30 00:20:14;;;;;;;15.17;11.40;;;;;;;14.97;100.00;97574.88;5067717;28;20203;-61
2023/09/30 00:22:43;;;;;;;17.13;10.27;;;;;;;14.94;100.00;97577.91;5076064;28;20281;-62
2023/09/30 00:25:11;;;;;;;18.50;11.00;;;;;;;15.00;100.00;97585.13;5070280;28;20542;-59
2023/09/30 00:27:39;;;;;;;16.67;10.77;;;;;;;14.99;100.00;97580.81;5074855;28;20689;-61
2023/09/30 00:30:08;;;;;;;17.43;10.77;;;;;;;15.05;100.00;97585.34;5067714;28;20260;-60
2023/09/30 00:32:35;;;;;;;15.57;10.73;;;;;;;15.04;100.00;97588.19;5078262;28;20202;-60
2023/09/30 00:35:04;;;;;;;16.93;10.70;;;;;;;15.02;100.00;97596.44;5072752;28;20201;-60
2023/09/30 00:37:32;;;;;;;18.00;10.00;;;;;;;15.05;100.00;97608.53;5074737;28;20805;-63
2023/09/30 00:40:02;;;;;;;15.33;10.47;;;;;;;15.05;100.00;97606.69;5070728;28;20239;-62
2023/09/30 00:42:30;;;;;;;17.70;10.23;;;;;;;15.08;100.00;97600.09;5076765;28;20200;-60
2023/09/30 00:44:58;;;;;;;13.20;9.83;;;;;;;15.11;100.00;97599.69;4970810;28;20226;-60
2023/09/30 00:47:26;;;;;;;16.77;10.50;;;;;;;15.14;100.00;97595.81;5075660;28;20297;-60
2023/09/30 00:49:54;;;;;;;16.73;10.43;;;;;;;15.14;100.00;97593.16;5073313;28;20202;-62
2023/09/30 00:52:22;;;;;;;18.67;11.20;;;;;;;15.08;100.00;97591.28;5078173;28;20255;-59
2023/09/30 00:54:51;;;;;;;14.80;10.17;;;;;;;14.99;100.00;97591.50;5077876;28;20293;-59
2023/09/30 00:57:21;;;;;;;17.60;11.67;;;;;;;14.91;100.00;97599.66;5075925;28;20210;-61
2023/09/30 00:59:50;;;;;;;16.07;10.67;;;;;;;14.85;100.00;97595.13;5076761;28;20213;-59
2023/09/30 01:02:18;;;;;;;17.53;10.50;;;;;;;14.79;100.00;97598.63;5078632;28;20229;-58
2023/09/30 01:04:46;;;;;;;15.97;10.50;;;;;;;14.72;100.00;97607.41;5072468;28;20297;-58
2023/09/30 01:07:14;;;;;;;15.10;10.80;;;;;;;14.67;100.00;97604.50;5079111;28;21847;-59
2023/09/30 01:09:41;;;;;;;19.33;11.53;;;;;;;14.66;100.00;97607.34;5075554;28;20194;-58
2023/09/30 01:12:09;;;;;;;20.23;11.43;;;;;;;14.65;100.00;97603.03;5079940;28;20198;-60
2023/09/30 01:14:40;;;;;;;18.50;11.87;;;;;;;14.60;100.00;97591.13;5073732;28;20204;-59
2023/09/30 01:17:09;;;;;;;19.10;11.73;;;;;;;14.48;100.00;97584.75;5078252;28;20199;-62
2023/09/30 01:19:37;;;;;;;18.47;12.53;;;;;;;14.42;100.00;97590.88;4976546;28;20300;-61
2023/09/30 01:22:09;;;;;;;15.23;10.70;;;;;;;14.36;100.00;97591.66;5082449;28;20202;-57
2023/09/30 01:24:41;;;;;;;17.60;10.70;;;;;;;14.25;100.00;97587.72;5072780;28;20455;-60
2023/09/30 01:27:09;;;;;;;22.13;12.00;;;;;;;14.22;100.00;97590.78;5075951;28;20647;-60
2023/09/30 01:29:38;;;;;;;18.10;10.63;;;;;;;14.13;100.00;97595.44;5074571;28;20714;-62
2023/09/30 01:32:07;;;;;;;17.23;11.00;;;;;;;14.11;100.00;97602.81;5076484;28;20203;-58
2023/09/30 01:34:35;;;;;;;19.30;10.93;;;;;;;14.07;100.00;97606.88;5075164;28;20283;-59
2023/09/30 01:37:03;;;;;;;16.33;11.00;;;;;;;14.07;100.00;97607.69;5071499;28;20234;-61
2023/09/30 01:39:33;;;;;;;18.63;10.97;;;;;;;13.99;100.00;97610.53;5074518;28;20747;-60
2023/09/30 01:42:01;;;;;;;14.57;10.80;;;;;;;13.92;100.00;97607.00;5077429;28;20194;-60
2023/09/30 01:44:29;;;;;;;19.97;11.40;;;;;;;13.85;100.00;97610.44;5076845;28;20309;-60
2023/09/30 01:46:57;;;;;;;18.33;12.03;;;;;;;13.73;100.00;97604.81;5079621;28;20644;-58
2023/09/30 01:49:26;;;;;;;16.23;10.57;;;;;;;13.67;100.00;97600.28;5074208;28;20214;-61
2023/09/30 01:51:53;;;;;;;18.77;11.50;;;;;;;13.61;100.00;97601.03;5080046;28;20294;-60
2023/09/30 01:54:21;;;;;;;15.47;9.47;;;;;;;13.55;100.00;97599.97;4972306;28;20418;-59
2023/09/30 01:56:50;;;;;;;18.67;10.87;;;;;;;13.49;100.00;97610.56;5078767;28;20901;-59
2023/09/30 01:59:18;;;;;;;19.57;11.07;;;;;;;13.45;100.00;97615.47;5072906;28;20222;-57
2023/09/30 02:01:47;;;;;;;17.57;9.83;;;;;;;13.50;100.00;97614.88;5077364;28;20242;-61
2023/09/30 02:04:15;;;;;;;20.07;11.33;;;;;;;13.54;100.00;97621.47;5071276;28;20367;-59
2023/09/30 02:06:43;;;;;;;16.13;10.03;;;;;;;13.57;100.00;97597.94;5073754;28;20914;-56
2023/09/30 02:09:12;;;;;;;15.73;10.57;;;;;;;13.72;100.00;97610.34;5055614;28;20226;-60
2023/09/30 02:11:41;;;;;;;17.70;10.30;;;;;;;13.77;100.00;97610.56;5080161;28;20212;-59
2023/09/30 02:14:11;;;;;;;15.50;10.17;;;;;;;13.95;100.00;97619.94;5073230;28;20422;-62
2023/09/30 02:16:39;;;;;;;22.63;9.90;;;;;;;14.06;100.00;97616.72;5074916;28;20658;-57
2023/09/30 02:19:08;;;;;;;15.83;9.20;;;;;;;14.09;100.00;97613.66;5072190;28;20225;-60
2023/09/30 02:21:36;;;;;;;15.17;9.30;;;;;;;14.12;100.00;97607.13;5080640;28;20277;-59
2023/09/30 02:24:06;;;;;;;19.10;9.10;;;;;;;14.20;100.00;97606.97;5072572;28;20194;-58
2023/09/30 02:26:34;;;;;;;13.37;9.33;;;;;;;14.14;100.00;97605.88;5077525;28;20318;-58
2023/09/30 02:29:01;;;;;;;13.90;9.03;;;;;;;14.10;100.00;97609.97;4970804;28;20965;-59
2023/09/30 02:31:30;;;;;;;14.33;9.27;;;;;;;14.09;100.00;97615.50;5078604;28;20302;-59
2023/09/30 02:33:58;;;;;;;14.80;8.93;;;;;;;14.13;100.00;97620.22;5073756;28;20214;-59
2023/09/30 02:36:27;;;;;;;13.90;9.47;;;;;;;14.17;100.00;97615.34;5071136;28;20292;-57
2023/09/30 02:38:55;;;;;;;15.87;10.00;;;;;;;14.18;100.00;97615.13;5075029;28;20325;-57
2023/09/30 02:41:23;;;;;;;14.20;8.97;;;;;;;14.21;100.00;97621.13;5074636;28;20270;-58
2023/09/30 02:43:51;;;;;;;10.57;8.03;;;;;;;14.16;100.00;97609.19;5072787;28;20260;-60
2023/09/30 02:46:18;;;;;;;14.23;8.17;;;;;;;14.05;100.00;97609.75;5076347;28;20702;-61
2023/09/30 02:48:47;;;;;;;12.03;7.80;;;;;;;13.93;100.00;97613.97;5074303;28;20760;-61
2023/09/30 02:51:15;;;;;;;12.17;7.60;;;;;;;13.85;100.00;97615.78;5069606;28;20198;-59
2023/09/30 02:53:43;;;;;;;11.60;8.10;;;;;;;13.75;100.00;97608.13;5071478;28;20206;-60
2023/09/30 02:56:10;;;;;;;13.37;8.50;;;;;;;13.70;100.00;97615.88;5070489;28;20269;-61
2023/09/30 02:58:40;;;;;;;12.07;8.03;;;;;;;13.75;100.00;97625.91;5010045;28;20383;-58
2023/09/30 03:01:09;;;;;;;12.03;8.17;;;;;;;13.83;100.00;97623.13;5074524;28;20198;-55
2023/09/30 03:03:38;;;;;;;13.23;8.13;;;;;;;13.94;100.00;97620.94;4957938;28;20292;-56
2023/09/30 03:06:07;;;;;;;12.73;8.50;;;;;;;13.97;100.00;97628.53;5073854;28;20708;-55
2023/09/30 03:08:35;;;;;;;13.47;8.37;;;;;;;14.05;100.00;97623.06;5070288;28;20315;-61
2023/09/30 03:11:04;;;;;;;13.50;9.17;;;;;;;14.08;100.00;97627.19;5078926;28;20242;-61
2023/09/30 03:13:31;;;;;;;10.03;7.67;;;;;;;14.14;100.00;97624.53;5065232;28;20282;-58
2023/09/30 03:16:01;;;;;;;12.67;8.37;;;;;;;14.18;100.00;97625.78;5073478;28;20221;-62
2023/09/30 03:18:30;;;;;;;11.50;7.67;;;;;;;14.24;100.00;97628.72;5071114;28;21231;-62
2023/09/30 03:21:01;;;;;;;12.40;7.87;;;;;;;14.29;100.00;97624.44;5072336;28;20213;-62
2023/09/30 03:23:30;;;;;;;11.57;7.17;;;;;;;14.31;100.00;97626.91;4997206;28;20309;-63
2023/09/30 03:25:58;;;;;;;12.20;7.67;;;;;;;14.44;100.00;97626.97;5073489;28;20948;-61
2023/09/30 03:28:26;;;;;;;12.13;7.33;;;;;;;14.51;100.00;97637.66;5067692;28;20299;-61
2023/09/30 03:30:54;;;;;;;12.07;7.87;;;;;;;14.48;100.00;97638.88;5072218;28;20374;-59
2023/09/30 03:33:22;;;;;;;10.03;7.13;;;;;;;14.50;100.00;97635.19;4971470;28;21215;-62
2023/09/30 03:35:51;;;;;;;11.33;7.03;;;;;;;14.52;100.00;97633.97;5075500;28;20214;-63
2023/09/30 03:38:19;;;;;;;14.00;7.43;;;;;;;14.47;100.00;97650.56;5026725;28;20500;-62
2023/09/30 03:40:50;;;;;;;10.40;6.97;;;;;;;14.57;100.00;97657.38;5071024;28;20676;-59
2023/09/30 03:43:17;;;;;;;11.57;7.77;;;;;;;14.63;100.00;97645.94;5070482;28;20963;-62
2023/09/30 03:45:46;;;;;;;12.17;6.73;;;;;;;14.68;100.00;97635.47;5072969;28;20246;-60
2023/09/30 03:48:14;;;;;;;9.17;7.17;;;;;;;14.67;100.00;97623.16;5070859;28;20261;-62
2023/09/30 03:50:41;;;;;;;10.17;7.50;;;;;;;14.69;100.00;97629.13;5072076;28;20198;-57
2023/09/30 03:53:09;;;;;;;10.30;6.67;;;;;;;14.68;100.00;97635.47;5073836;28;20225;-63
2023/09/30 03:55:38;;;;;;;13.10;7.97;;;;;;;14.69;100.00;97639.78;5069573;28;20251;-60
2023/09/30 03:58:07;;;;;;;9.80;6.47;;;;;;;14.74;100.00;97644.53;5070835;28;20318;-60
2023/09/30 04:00:35;;;;;;;9.73;6.63;;;;;;;14.76;100.00;97640.66;5072351;28;20307;-60
2023/09/30 04:03:04;;;;;;;11.40;6.73;;;;;;;14.81;100.00;97629.41;5069751;28;20287;-56
2023/09/30 04:05:36;;;;;;;10.40;7.23;;;;;;;14.80;100.00;97633.09;5041979;28;20212;-62
2023/09/30 04:08:05;;;;;;;11.43;7.20;;;;;;;14.83;100.00;97639.88;5009641;28;20374;-61
2023/09/30 04:10:33;;;;;;;9.77;6.07;;;;;;;14.76;100.00;97632.66;5058298;28;20226;-62
2023/09/30 04:13:00;;;;;;;12.27;8.07;;;;;;;14.85;100.00;97630.66;5036516;28;20207;-58
2023/09/30 04:15:31;;;;;;;11.23;6.47;;;;;;;14.72;100.00;97650.09;5068137;28;20198;-60
2023/09/30 04:17:58;;;;;;;10.13;6.67;;;;;;;14.59;100.00;97647.34;5071009;28;20609;-61
2023/09/30 04:20:27;;;;;;;10.23;7.00;;;;;;;14.63;100.00;97653.94;5064003;28;20203;-61
2023/09/30 04:22:57;;;;;;;14.53;8.70;;;;;;;14.73;100.00;97662.41;5068568;28;20692;-58
2023/09/30 04:25:25;;;;;;;11.00;8.17;;;;;;;14.72;100.00;97654.59;5076909;28;20202;-60
2023/09/30 04:27:53;;;;;;;11.07;7.53;;;;;;;14.83;100.00;97656.72;5067160;28;20265;-61
2023/09/30 04:30:22;;;;;;;9.00;6.90;;;;;;;14.86;100.00;97661.63;5072644;28;20216;-61
2023/09/30 04:32:52;;;;;;;9.03;6.57;;;;;;;14.77;100.00;97644.16;5063677;28;20267;-62
2023/09/30 04:35:21;;;;;;;8.53;6.50;;;;;;;14.78;100.00;97661.81;5019464;28;20697;-63
2023/09/30 04:37:49;;;;;;;13.10;7.53;;;;;;;14.82;100.00;97652.41;5074251;28;20330;-61
2023/09/30 04:40:19;;;;;;;9.27;6.30;;;;;;;14.79;100.00;97657.28;4968643;28;20834;-60
2023/09/30 04:42:48;;;;;;;8.27;6.67;;;;;;;14.70;100.00;97661.94;5073366;28;20245;-62
2023/09/30 04:45:17;;;;;;;12.37;7.03;;;;;;;14.71;100.00;97664.44;5070319;28;21081;-61
2023/09/30 04:47:45;;;;;;;10.33;6.20;;;;;;;14.67;100.00;97663.19;5073821;28;20233;-60
2023/09/30 04:50:16;;;;;;;7.33;5.67;;;;;;;14.64;100.00;97670.72;5070468;28;20785;-63
2023/09/30 04:52:45;;;;;;;10.77;6.47;;;;;;;14.69;100.00;97674.47;5074562;28;20334;-61
2023/09/30 04:55:15;;;;;;;8.77;6.43;;;;;;;14.68;100.00;97675.50;5069542;28;21137;-63
2023/09/30 04:57:45;;;;;;;9.97;6.77;;;;;;;14.75;100.00;97668.38;5074561;28;20698;-61
2023/09/30 05:00:14;;;;;;;10.73;6.57;;;;;;;14.76;100.00;97670.00;5006968;28;20294;-61
2023/09/30 05:02:44;;;;;;;9.70;6.27;;;;;;;14.79;100.00;97676.81;5074417;28;20211;-62
2023/09/30 05:05:12;;;;;;;10.50;7.30;;;;;;;14.73;100.00;97677.56;5068783;28;20321;-61
2023/09/30 05:07:42;;;;;;;8.87;6.07;;;;;;;14.65;100.00;97675.06;5074914;28;20919;-60
2023/09/30 05:10:11;;;;;;;12.33;7.63;;;;;;;14.63;100.00;97683.25;5068991;28;20223;-62
2023/09/30 05:12:40;;;;;;;8.60;6.87;;;;;;;14.61;100.00;97691.44;5072218;28;20609;-58
2023/09/30 05:15:10;;;;;;;13.17;7.07;;;;;;;14.50;100.00;97688.50;4981725;28;20932;-62
2023/09/30 05:17:38;;;;;;;12.60;7.33;;;;;;;14.37;100.00;97679.44;5073658;28;20237;-61
2023/09/30 05:20:07;;;;;;;10.53;7.30;;;;;;;14.37;100.00;97682.09;5069643;28;20284;-61
2023/09/30 05:22:35;;;;;;;12.63;7.93;;;;;;;14.43;100.00;97691.97;5072222;28;20255;-62
2023/09/30 05:25:04;;;;;;;9.80;7.10;;;;;;;14.55;100.00;97692.25;5068477;28;20370;-64
2023/09/30 05:27:32;;;;;;;8.53;6.73;;;;;;;14.60;100.00;97673.00;5072258;28;20221;-61
2023/09/30 05:30:00;;;;;;;10.53;7.00;;;;;;;14.56;100.00;97674.38;5065636;28;20661;-62
2023/09/30 05:32:27;;;;;;;11.90;7.27;;;;;;;14.53;100.00;97677.44;5067196;28;20318;-63
2023/09/30 05:34:55;;;;;;;11.40;7.97;;;;;;;14.50;100.00;97676.00;5072606;28;20202;-61
2023/09/30 05:37:23;;;;;;;12.17;7.87;;;;;;;14.52;100.00;97681.97;5070446;28;20277;-64
2023/09/30 05:39:51;;;;;;;9.80;6.77;;;;;;;14.67;100.00;97686.34;5066614;28;20252;-63
2023/09/30 05:42:20;;;;;;;11.30;7.13;;;;;;;14.53;100.00;97688.94;5079189;28;20202;-61
2023/09/30 05:44:48;;;;;;;10.57;7.73;;;;;;;14.58;100.00;97683.00;5003714;28;20551;-64
2023/09/30 05:47:16;;;;;;;10.37;6.80;;;;;;;14.62;100.00;97689.63;5068156;28;20283;-60
2023/09/30 05:49:44;;;;;;;12.70;7.60;;;;;;;14.65;100.00;97678.56;5065810;28;20215;-64
2023/09/30 05:52:12;;;;;;;9.90;7.30;;;;;;;14.77;100.00;97692.16;5074321;28;20781;-62
2023/09/30 05:54:40;;;;;;;9.73;7.73;;;;;;;14.84;100.00;97689.53;5071110;28;20289;-64
2023/09/30 05:57:08;;;;;;;14.30;8.03;;;;;;;14.94;100.00;97687.28;5074979;28;20249;-61
2023/09/30 05:59:37;;;;;;;10.97;8.60;;;;;;;14.98;100.00;97698.41;5070752;28;20387;-66
2023/09/30 06:02:05;;;;;;;13.00;8.00;;;;;;;14.98;100.00;97693.91;5074634;28;20288;-63
2023/09/30 06:04:33;;;;;;;11.53;7.90;;;;;;;14.97;100.00;97692.25;5071703;28;20217;-64
2023/09/30 06:07:01;;;;;;;14.93;8.73;;;;;;;14.76;100.00;97702.00;5075417;28;20264;-61
2023/09/30 06:09:30;;;;;;;13.80;8.00;;;;;;;14.82;100.00;97696.91;5071383;28;20237;-64
2023/09/30 06:11:59;;;;;;;12.40;8.10;;;;;;;14.95;100.00;97704.94;5074789;28;20581;-62
2023/09/30 06:14:30;;;;;;;13.20;7.73;;;;;;;14.81;100.00;97725.44;5033102;28;21389;-64
2023/09/30 06:17:00;;;;;;;14.63;8.33;;;;;;;14.92;100.00;97718.69;5033338;28;20219;-58
2023/09/30 06:19:27;;;;;;;11.07;7.87;;;;;;;14.84;100.00;97727.72;5071887;28;20229;-63
2023/09/30 06:21:56;;;;;;;11.10;8.00;;;;;;;14.80;100.00;97731.78;5073964;28;20230;-63
2023/09/30 06:24:24;;;;;;;10.43;7.27;;;;;;;14.87;100.00;97723.81;5074166;28;20214;-62
2023/09/30 06:26:52;;;;;;;11.93;7.90;;;;;;;14.86;100.00;97728.34;5071922;28;20252;-62
2023/09/30 06:29:19;;;;;;;10.83;7.57;;;;;;;14.98;100.00;97725.09;5075956;28;20273;-63
2023/09/30 06:31:47;;;;;;;11.27;7.97;;;;;;;14.99;100.00;97724.06;5075706;28;20294;-62
2023/09/30 06:34:16;;;;;;;15.27;7.90;;;;;;;14.85;100.00;97729.34;5079706;28;20202;-60
2023/09/30 06:36:45;;;;;;;13.20;8.50;;;;;;;14.79;100.00;97738.16;5072639;28;20218;-63
2023/09/30 06:39:12;;;;;;;11.47;7.77;;;;;;;14.90;100.00;97728.75;5072653;28;20225;-62
2023/09/30 06:41:40;;;;;;;12.30;8.43;;;;;;;14.83;100.00;97728.72;5071648;28;20251;-61
2023/09/30 06:44:08;;;;;;;9.70;7.80;;;;;;;14.75;100.00;97723.53;5074521;28;20742;-61
2023/09/30 06:46:35;;;;;;;8.47;7.50;;;;;;;14.75;100.00;97729.72;5070314;28;20297;-58
2023/09/30 06:49:03;;;;;;;10.57;7.53;;;;;;;14.80;100.00;97733.63;5072758;28;20241;-60
2023/09/30 06:51:32;;;;;;;12.87;7.67;;;;;;;14.69;100.00;97733.13;4971372;28;20217;-62
2023/09/30 06:54:00;;;;;;;9.33;7.33;;;;;;;14.72;100.00;97735.44;5075922;28;20210;-56
2023/09/30 06:56:28;;;;;;;10.70;7.57;;;;;;;14.89;100.00;97735.94;5072983;28;20674;-59
2023/09/30 06:58:55;;;;;;;11.37;8.30;;;;;;;14.82;100.00;97732.41;5077109;28;20805;-60
2023/09/30 07:01:23;;;;;;;11.83;7.07;;;;;;;15.06;100.00;97743.59;5073168;28;20757;-60
2023/09/30 07:03:51;;;;;;;11.23;8.00;;;;;;;15.38;100.00;97753.78;5076717;28;20240;-59
2023/09/30 07:06:23;;;;;;;9.97;7.47;;;;;;;15.59;100.00;97750.94;5068927;28;20732;-60
2023/09/30 07:08:53;;;;;;;9.50;7.23;;;;;;;15.76;100.00;97758.59;5075217;28;20279;-61
2023/09/30 07:11:28;;;;;;;10.13;7.63;;;;;;;15.90;100.00;97770.97;5071370;28;20270;-61
2023/09/30 07:13:56;;;;;;;11.00;7.20;;;;;;;15.83;100.00;97763.94;5076234;28;20194;-63
2023/09/30 07:16:24;;;;;;;11.23;8.90;;;;;;;15.75;100.00;97762.28;5070947;28;20242;-61
2023/09/30 07:18:52;;;;;;;11.00;8.10;;;;;;;15.76;100.00;97766.59;5074538;28;20210;-62
2023/09/30 07:21:20;;;;;;;11.30;8.67;;;;;;;15.75;100.00;97770.31;4971366;28;20206;-61
2023/09/30 07:23:48;;;;;;;10.50;7.60;;;;;;;15.65;100.00;97773.34;5069386;28;20876;-62
2023/09/30 07:26:17;;;;;;;12.23;7.30;;;;;;;15.63;100.00;97776.22;5014399;28;20213;-63
2023/09/30 07:28:45;;;;;;;9.17;6.87;;;;;;;15.60;100.00;97778.50;5074638;28;20662;-62
2023/09/30 07:31:13;;;;;;;10.13;6.73;;;;;;;15.56;100.00;97778.06;5072529;28;20286;-63
2023/09/30 07:33:41;;;;;;;11.37;6.23;;;;;;;15.74;100.00;97779.34;5075516;28;20205;-59
2023/09/30 07:36:08;;;;;;;8.57;6.27;;;;;;;15.77;100.00;97773.59;5021244;28;20210;-58
2023/09/30 07:38:36;;;;;;;9.23;6.07;;;;;;;15.87;100.00;97782.03;5072305;28;20306;-62
2023/09/30 07:41:05;;;;;;;9.83;5.33;;;;;;;15.65;100.00;97777.88;5070486;28;20627;-64
2023/09/30 07:43:34;;;;;;;7.33;4.80;;;;;;;15.34;100.00;97775.53;5072992;28;20289;-62
2023/09/30 07:46:06;;;;;;;5.23;4.73;;;;;;;15.40;100.00;97783.78;5069910;28;20302;-64
2023/09/30 07:48:34;;;;;;;6.47;4.67;;;;;;;15.45;100.00;97787.47;5071458;28;20236;-63
2023/09/30 07:51:04;;;;;;;4.97;4.10;;;;;;;15.55;100.00;97796.97;5003131;28;21534;-64
2023/09/30 07:53:32;;;;;;;2.93;2.63;;;;;;;15.45;100.00;97797.34;5002929;28;20214;-62
2023/09/30 07:56:00;;;;;;;3.43;2.73;;;;;;;15.43;100.00;97797.53;5050950;28;20214;-62
2023/09/30 07:58:28;;;;;;;2.57;1.33;;;;;;;15.30;100.00;97798.28;5072237;28;20297;-66
2023/09/30 08:00:57;;;;;;;1.50;1.40;;;;;;;15.01;100.00;97792.25;5049265;28;20214;-63
2023/09/30 08:03:25;;;;;;;1.53;1.43;;;;;;;15.28;100.00;97808.34;5036541;28;20217;-64
2023/09/30 08:05:53;;;;;;;2.20;1.63;;;;;;;15.42;100.00;97805.75;5058909;28;20221;-64
2023/09/30 08:08:22;;;;;;;0.70;0.70;;;;;;;15.56;100.00;97812.78;5033811;28;20225;-60
2023/09/30 08:10:49;;;;;;;1.20;1.00;;;;;;;15.56;100.00;97818.13;5073616;28;20645;-65
2023/09/30 08:13:17;;;;;;;1.30;1.20;;;;;;;15.61;100.00;97817.53;5067473;28;20296;-65
2023/09/30 08:15:45;;;;;;;1.73;1.63;;;;;;;15.51;100.00;97822.41;5061486;28;20328;-62
2023/09/30 08:18:14;;;;;;;1.83;1.73;;;;;;;15.30;100.00;97825.00;5013819;28;20222;-66
2023/09/30 08:20:42;;;;;;;0.60;0.60;;;;;;;15.11;100.00;97829.22;5067331;28;20741;-65
2023/09/30 08:23:11;;;;;;;0.97;0.97;;;;;;;15.13;100.00;97826.34;4981912;28;20242;-63
2023/09/30 08:25:39;;;;;;;0.90;0.90;;;;;;;15.22;100.00;97825.16;5071084;28;20341;-61
2023/09/30 08:28:06;;;;;;;0.80;0.80;;;;;;;15.25;100.00;97818.63;5037927;28;20314;-63
2023/09/30 08:30:34;;;;;;;0.70;0.70;;;;;;;15.24;100.00;97825.78;5072428;28;20610;-63
2023/09/30 08:33:04;;;;;;;1.03;1.03;;;;;;;15.37;100.00;97829.56;5068159;28;21061;-64
2023/09/30 08:35:36;;;;;;;0.70;0.70;;;;;;;15.38;100.00;97840.03;5076491;28;20616;-62
2023/09/30 08:38:04;;;;;;;1.17;0.63;;;;;;;15.28;100.00;97839.59;5012337;28;21665;-61
2023/09/30 08:40:32;;;;;;;0.50;0.50;;;;;;;15.31;100.00;97844.53;5072307;28;20198;-63
2023/09/30 08:43:00;;;;;;;0.83;0.77;;;;;;;15.24;100.00;97857.81;5065667;28;20207;-60
2023/09/30 08:45:30;;;;;;;0.83;0.83;;;;;;;15.32;100.00;97859.50;5071131;28;20229;-63
2023/09/30 08:48:05;;;;;;;0.80;0.80;;;;;;;15.54;100.00;97857.56;5069024;28;20329;-64
2023/09/30 08:50:34;;;;;;;0.50;0.50;;;;;;;15.81;100.00;97862.16;5073270;28;20243;-63
2023/09/30 08:53:03;;;;;;;0.60;0.60;;;;;;;15.77;100.00;97861.75;4971222;28;20209;-63
2023/09/30 08:55:34;;;;;;;0.50;0.50;;;;;;;15.58;100.00;97866.81;5070083;28;20226;-59
2023/09/30 08:58:02;;;;;;;0.60;0.60;;;;;;;15.54;100.00;97862.91;5055338;28;20307;-64
2023/09/30 09:00:30;;;;;;;0.90;0.90;;;;;;;15.41;100.00;97868.19;5075254;28;20272;-60
2023/09/30 09:02:58;;;;;;;0.73;0.73;;;;;;;15.17;100.00;97867.66;5068666;28;20198;-63
2023/09/30 09:05:25;;;;;;;1.00;1.00;;;;;;;15.41;100.00;97866.34;5075453;28;20194;-61
2023/09/30 09:07:54;;;;;;;1.33;0.80;;;;;;;15.48;100.00;97869.03;5029746;28;20222;-62
2023/09/30 09:10:22;;;;;;;0.60;0.60;;;;;;;15.65;100.00;97866.00;5084412;28;20954;-61
2023/09/30 09:12:56;;;;;;;0.80;0.80;;;;;;;15.76;100.00;97874.28;5078082;28;20218;-63
2023/09/30 09:15:25;;;;;;;0.50;0.50;;;;;;;16.05;100.00;97866.16;5080963;28;20321;-61
2023/09/30 09:17:54;;;;;;;0.70;0.70;;;;;;;16.10;100.00;97863.72;5012249;28;20222;-62
2023/09/30 09:20:23;;;;;;;0.70;0.70;;;;;;;16.25;100.00;97860.84;5076451;28;20285;-62
2023/09/30 09:22:53;;;;;;;0.60;0.60;;;;;;;16.36;100.00;97859.41;5072131;28;21186;-62
2023/09/30 09:25:23;;;;;;;0.60;0.60;;;;;;;16.46;100.00;97854.47;5080304;28;20298;-62
2023/09/30 09:27:53;;;;;;;0.50;0.50;;;;;;;16.30;100.00;97853.06;4968932;28;20234;-63
2023/09/30 09:30:22;;;;;;;0.70;0.70;;;;;;;16.49;100.00;97858.59;5075961;28;20226;-59
2023/09/30 09:33:08;;;;;;;0.80;0.80;;;;;;;16.55;100.00;97863.13;5075556;28;20248;-62
2023/09/30 09:35:36;;;;;;;0.80;0.80;;;;;;;16.76;100.00;97855.94;5076849;28;20248;-61
2023/09/30 09:38:05;;;;;;;1.10;1.00;;;;;;;17.14;100.00;97854.44;5022269;28;20487;-61
2023/09/30 09:40:35;;;;;;;0.80;0.80;;;;;;;17.10;100.00;97847.88;5074067;28;20273;-61
2023/09/30 09:43:05;;;;;;;2.43;1.10;;;;;;;17.13;100.00;97850.13;5067490;28;20194;-62
2023/09/30 09:45:35;;;;;;;1.37;1.30;;;;;;;17.08;100.00;97842.75;5024759;28;20552;-63
2023/09/30 09:48:04;;;;;;;0.93;0.93;;;;;;;17.17;100.00;97835.28;5054019;28;20222;-59
2023/09/30 09:50:32;;;;;;;0.90;0.90;;;;;;;17.39;100.00;97840.38;5008631;28;20218;-63
2023/09/30 09:53:00;;;;;;;3.00;1.27;;;;;;;17.21;100.00;97844.53;5076580;28;20233;-61
2023/09/30 09:55:28;;;;;;;0.80;0.80;;;;;;;17.23;100.00;97847.81;5074091;28;20202;-61
2023/09/30 09:57:58;;;;;;;1.20;1.20;;;;;;;17.45;100.00;97853.75;5072817;28;20294;-62
2023/09/30 10:00:29;;;;;;;1.03;1.03;;;;;;;17.57;100.00;97843.16;4972912;28;20722;-63
2023/09/30 10:02:58;;;;;;;1.97;1.00;;;;;;;17.77;100.00;97848.44;5070527;28;20221;-63
2023/09/30 10:05:27;;;;;;;1.30;1.30;;;;;;;17.82;100.00;97853.16;5072225;28;20260;-63
2023/09/30 10:07:57;;;;;;;1.20;1.20;;;;;;;17.81;100.00;97851.50;5074200;28;20226;-60
2023/09/30 10:10:25;;;;;;;0.83;0.83;;;;;;;17.98;100.00;97859.88;5023321;28;20400;-61
2023/09/30 10:12:53;;;;;;;1.80;1.47;;;;;;;18.22;100.00;97863.66;5071909;28;20209;-59
2023/09/30 10:15:41;;;;;;;1.20;1.20;;;;;;;18.24;100.00;97852.75;5002432;28;20233;-63
2023/09/30 10:18:10;;;;;;;1.30;1.20;;;;;;;18.14;100.00;97844.31;5069542;28;21021;-63
2023/09/30 10:20:44;;;;;;;0.90;0.90;;;;;;;18.19;100.00;97842.66;5071003;28;20190;-60
2023/09/30 10:23:24;;;;;;;1.40;1.30;;;;;;;18.30;100.00;97841.13;5071693;28;20206;-61
2023/09/30 10:25:57;;;;;;;1.40;1.30;;;;;;;18.22;100.00;97844.09;5067563;28;20285;-62
2023/09/30 10:28:40;;;;;;;1.73;1.57;;;;;;;18.27;100.00;97846.09;5050274;28;20465;-61
2023/09/30 10:31:12;;;;;;;1.57;1.40;;;;;;;18.23;100.00;97851.91;5060034;28;20257;-61
2023/09/30 10:34:21;;;;;;;1.20;1.10;;;;;;;18.56;100.00;97857.25;5017105;28;20211;-62
2023/09/30 10:36:50;;;;;;;1.77;1.67;;;;;;;18.27;100.00;97852.31;5079763;28;20202;-60
2023/09/30 10:39:54;;;;;;;1.20;1.20;;;;;;;18.36;100.00;97847.47;5068942;28;20702;-57
2023/09/30 10:42:45;;;;;;;1.53;1.43;;;;;;;18.29;100.00;97855.59;5076813;28;20218;-62
2023/09/30 10:45:44;;;;;;;1.33;1.23;;;;;;;18.49;100.00;97857.28;5023894;28;20207;-60
2023/09/30 10:48:35;;;;;;;1.80;1.70;;;;;;;18.44;100.00;97863.31;5074021;28;20245;-59
2023/09/30 10:51:18;;;;;;;2.00;1.60;;;;;;;18.44;100.00;97857.13;5072412;28;20305;-60
2023/09/30 10:53:48;;;;;;;18.00;5.87;;;;;;;18.54;100.00;97862.00;5073119;28;20217;-60
2023/09/30 10:56:16;;;;;;;2.27;2.13;;;;;;;18.56;100.00;97868.81;5077805;28;20198;-60
2023/09/30 10:58:45;;;;;;;2.13;2.03;;;;;;;18.54;100.00;97878.09;5078188;28;20226;-61
2023/09/30 11:01:14;;;;;;;1.57;1.47;;;;;;;18.66;100.00;97876.34;5072363;28;20232;-61
2023/09/30 11:03:45;;;;;;;2.53;1.67;;;;;;;18.89;100.00;97858.81;5011920;28;20218;-61
2023/09/30 11:06:17;;;;;;;2.20;2.00;;;;;;;19.01;100.00;97873.16;5055804;28;20717;-60
2023/09/30 11:08:48;;;;;;;2.33;2.13;;;;;;;19.45;100.00;97867.75;5029189;28;20966;-62
2023/09/30 11:11:15;;;;;;;2.07;1.90;;;;;;;19.75;100.00;97866.97;5069074;28;20218;-61
2023/09/30 11:13:43;;;;;;;1.90;1.80;;;;;;;19.62;100.00;97867.13;5034308;28;20581;-60
2023/09/30 11:16:11;;;;;;;2.30;2.10;;;;;;;19.13;100.00;97865.22;5065932;28;20203;-61
2023/09/30 11:18:39;;;;;;;2.73;2.30;;;;;;;19.26;100.00;97866.09;5035156;28;20226;-62
2023/09/30 11:21:10;;;;;;;2.83;2.30;;;;;;;19.40;100.00;97856.88;5059258;28;20558;-62
2023/09/30 11:23:38;;;;;;;2.80;2.37;;;;;;;19.48;100.00;97851.19;5075840;28;20200;-63
2023/09/30 11:26:06;;;;;;;2.63;2.43;;;;;;;19.63;100.00;97850.78;5073225;28;20290;-63
2023/09/30 11:28:39;;;;;;;2.30;2.17;;;;;;;19.66;100.00;97828.00;5072671;28;20276;-61